Time;durP1;ratioP1;P1;durP2;ratioP2;P2;SDS_P1;SDS_P2;PMS_P1;PMS_P2;Temp;Humidity;BMP_temperature;BMP_pressure;BME280_temperature;BME280_humidity;BME280_pressure;Samples;Min_cycle;Max_cycle;Signal;HPM_P1;HPM_P2
2023/05/26 00:00:53;;;;;;;12.43;8.30;;;16.80;99.90;;;;;;5032599;28;20033;-76
2023/05/26 00:03:19;;;;;;;11.50;8.13;;;16.70;99.90;;;;;;5016386;28;20398;-75
2023/05/26 00:05:45;;;;;;;12.32;8.30;;;16.70;99.90;;;;;;5032821;28;20041;-76
2023/05/26 00:08:11;;;;;;;9.05;7.50;;;16.70;99.90;;;;;;5033262;28;20394;-76
2023/05/26 00:10:37;;;;;;;14.05;8.05;;;16.60;99.90;;;;;;5032906;28;20026;-75
2023/05/26 00:13:04;;;;;;;10.15;7.90;;;16.60;99.90;;;;;;5033337;28;20076;-76
2023/05/26 00:15:30;;;;;;;12.57;8.15;;;16.60;99.90;;;;;;5032330;28;20026;-76
2023/05/26 00:18:01;;;;;;;14.65;8.10;;;16.50;99.90;;;;;;5034057;28;20045;-76
2023/05/26 00:20:27;;;;;;;11.95;7.82;;;16.50;99.90;;;;;;5016809;28;20037;-76
2023/05/26 00:22:53;;;;;;;9.55;7.93;;;16.50;99.90;;;;;;5032970;28;20425;-76
2023/05/26 00:25:20;;;;;;;9.57;7.95;;;16.40;99.90;;;;;;5033876;28;20036;-76
2023/05/26 00:27:46;;;;;;;10.50;8.13;;;16.40;99.90;;;;;;5034229;28;20528;-76
2023/05/26 00:30:12;;;;;;;10.90;8.07;;;16.40;99.90;;;;;;5032074;28;20037;-76
2023/05/26 00:32:38;;;;;;;13.15;7.93;;;16.30;99.90;;;;;;5032348;28;20041;-76
2023/05/26 00:35:05;;;;;;;11.65;9.02;;;16.30;99.90;;;;;;5016402;28;20036;-76
2023/05/26 00:37:32;;;;;;;11.95;6.90;;;16.30;99.90;;;;;;5032307;28;20037;-76
2023/05/26 00:39:58;;;;;;;11.85;7.38;;;16.30;99.90;;;;;;5033772;28;20036;-76
2023/05/26 00:42:24;;;;;;;9.55;7.53;;;16.20;99.90;;;;;;5032121;28;20045;-76
2023/05/26 00:44:51;;;;;;;11.50;8.00;;;16.20;99.90;;;;;;5032554;28;20038;-76
2023/05/26 00:47:17;;;;;;;12.70;7.60;;;16.20;99.90;;;;;;5038208;28;20041;-75
2023/05/26 00:49:44;;;;;;;11.85;7.30;;;16.10;99.90;;;;;;5035408;28;20045;-77
2023/05/26 00:52:11;;;;;;;12.52;7.10;;;16.10;99.90;;;;;;5035276;28;20034;-76
2023/05/26 00:54:40;;;;;;;14.68;7.40;;;16.10;99.90;;;;;;5032308;28;20037;-76
2023/05/26 00:57:07;;;;;;;10.95;7.72;;;16.10;99.90;;;;;;5032260;28;20396;-76
2023/05/26 00:59:33;;;;;;;10.02;7.72;;;16.10;99.90;;;;;;5032702;28;20351;-76
2023/05/26 01:01:59;;;;;;;12.23;7.93;;;16.20;99.90;;;;;;5032450;28;20042;-76
2023/05/26 01:04:27;;;;;;;13.57;8.43;;;16.20;99.90;;;;;;5032402;28;20025;-76
2023/05/26 01:06:55;;;;;;;10.25;7.10;;;16.00;99.90;;;;;;5033070;28;20033;-76
2023/05/26 01:09:21;;;;;;;11.27;7.50;;;16.00;99.90;;;;;;5031786;28;20030;-76
2023/05/26 01:11:47;;;;;;;10.50;7.88;;;15.90;99.90;;;;;;5031517;28;20041;-76
2023/05/26 01:14:18;;;;;;;12.55;8.05;;;15.80;99.90;;;;;;5033129;28;20037;-75
2023/05/26 01:16:52;;;;;;;;;;;15.80;99.90;;;;;;5032545;28;20037;-76
2023/05/26 01:19:43;;;;;;;11.98;7.25;;;15.70;99.90;;;;;;5031879;28;19905;-76
2023/05/26 01:22:33;;;;;;;12.63;7.32;;;15.80;99.90;;;;;;5032848;28;20032;-76
2023/05/26 01:25:12;;;;;;;11.30;7.73;;;15.70;99.90;;;;;;5032057;28;20026;-76
2023/05/26 01:28:05;;;;;;;9.25;8.20;;;15.70;99.90;;;;;;5016536;28;20037;-76
2023/05/26 01:30:33;;;;;;;11.40;7.63;;;15.60;99.90;;;;;;5030776;28;20034;-76
2023/05/26 01:32:59;;;;;;;12.00;8.45;;;15.60;99.90;;;;;;5015069;28;20057;-76
2023/05/26 01:35:25;;;;;;;38.03;28.60;;;15.50;99.90;;;;;;5031421;28;20033;-76
2023/05/26 01:37:51;;;;;;;45.85;29.90;;;15.60;99.90;;;;;;5048064;28;20037;-75
2023/05/26 01:40:17;;;;;;;67.78;48.10;;;15.60;99.90;;;;;;5031387;28;20044;-76
2023/05/26 01:42:55;;;;;;;39.20;27.50;;;15.50;99.90;;;;;;5032698;28;20026;-76
2023/05/26 01:45:23;;;;;;;67.80;45.22;;;15.50;99.90;;;;;;5031675;28;20036;-76
2023/05/26 01:47:50;;;;;;;131.43;53.47;;;15.70;99.90;;;;;;5025245;28;20040;-76
2023/05/26 01:50:17;;;;;;;120.50;47.10;;;15.60;99.90;;;;;;5049889;28;20021;-76
2023/05/26 01:52:43;;;;;;;42.35;18.25;;;15.50;99.90;;;;;;5014920;28;20092;-76
2023/05/26 01:55:11;;;;;;;19.70;10.98;;;15.40;99.90;;;;;;5014314;28;20041;-76
2023/05/26 01:57:37;;;;;;;22.90;11.80;;;15.50;99.90;;;;;;5031284;28;20025;-76
2023/05/26 02:00:04;;;;;;;23.20;10.80;;;15.40;99.90;;;;;;5030200;28;20036;-75
2023/05/26 02:02:30;;;;;;;23.23;10.43;;;15.50;99.90;;;;;;5029778;28;20406;-76
2023/05/26 02:04:56;;;;;;;11.43;9.18;;;15.50;99.90;;;;;;5022840;28;20029;-76
2023/05/26 02:07:22;;;;;;;16.23;9.82;;;15.50;99.90;;;;;;5022738;28;20700;-76
2023/05/26 02:09:48;;;;;;;11.35;8.32;;;15.40;99.90;;;;;;5012540;28;20078;-76
2023/05/26 02:12:14;;;;;;;14.27;9.10;;;15.40;99.90;;;;;;5030766;28;20489;-77
2023/05/26 02:14:40;;;;;;;17.77;9.38;;;15.40;99.90;;;;;;5029263;28;20037;-76
2023/05/26 02:17:07;;;;;;;12.20;8.57;;;15.50;99.90;;;;;;5028923;28;20505;-76
2023/05/26 02:19:33;;;;;;;14.98;9.77;;;15.50;99.90;;;;;;5029143;28;20029;-76
2023/05/26 02:21:59;;;;;;;12.70;8.98;;;15.50;99.90;;;;;;5030725;28;20537;-76
2023/05/26 02:24:25;;;;;;;10.98;9.07;;;15.50;99.90;;;;;;5029585;28;20029;-76
2023/05/26 02:26:51;;;;;;;13.30;9.27;;;15.40;99.90;;;;;;5030663;28;20490;-76
2023/05/26 02:29:17;;;;;;;10.15;8.50;;;15.40;99.90;;;;;;5030567;28;20029;-76
2023/05/26 02:31:43;;;;;;;15.00;8.88;;;15.40;99.90;;;;;;5028882;28;20572;-76
2023/05/26 02:34:10;;;;;;;14.13;9.10;;;15.30;99.90;;;;;;5030631;28;20049;-76
2023/05/26 02:36:36;;;;;;;11.98;8.70;;;15.30;99.90;;;;;;5030939;28;20033;-77
2023/05/26 02:39:03;;;;;;;14.20;8.90;;;15.40;99.90;;;;;;5030913;28;20493;-77
2023/05/26 02:41:29;;;;;;;11.23;10.00;;;15.40;99.90;;;;;;5031912;28;20030;-76
2023/05/26 02:43:55;;;;;;;13.07;9.05;;;15.30;99.90;;;;;;5030470;28;20044;-76
2023/05/26 02:46:21;;;;;;;12.85;8.98;;;15.30;99.90;;;;;;5029947;28;20048;-76
2023/05/26 02:48:47;;;;;;;9.70;8.57;;;15.30;99.90;;;;;;5048419;28;20036;-76
2023/05/26 02:51:13;;;;;;;14.52;9.32;;;15.30;99.90;;;;;;5041539;28;20036;-76
2023/05/26 02:53:40;;;;;;;13.75;8.52;;;15.30;99.90;;;;;;5031717;28;20041;-75
2023/05/26 02:56:06;;;;;;;12.80;9.13;;;15.20;99.90;;;;;;5030468;28;20025;-76
2023/05/26 02:58:32;;;;;;;14.02;9.68;;;15.20;99.90;;;;;;5014122;28;20044;-76
2023/05/26 03:00:59;;;;;;;16.73;9.48;;;15.10;99.90;;;;;;5013224;28;20041;-76
2023/05/26 03:03:25;;;;;;;15.10;8.95;;;15.10;99.90;;;;;;5030698;28;20025;-76
2023/05/26 03:05:52;;;;;;;22.17;9.88;;;15.00;99.90;;;;;;5031662;28;20026;-76
2023/05/26 03:08:18;;;;;;;13.48;9.02;;;15.10;99.90;;;;;;5030544;28;20029;-76
2023/05/26 03:10:44;;;;;;;12.30;9.18;;;15.10;99.90;;;;;;5030184;28;20033;-75
2023/05/26 03:13:10;;;;;;;15.35;9.60;;;15.00;99.90;;;;;;5014031;28;20064;-77
2023/05/26 03:15:36;;;;;;;13.48;8.82;;;15.10;99.90;;;;;;5029598;28;20034;-76
2023/05/26 03:18:02;;;;;;;15.77;9.43;;;15.10;99.90;;;;;;5030592;28;20037;-75
2023/05/26 03:20:29;;;;;;;13.48;8.75;;;15.00;99.90;;;;;;5030294;28;20045;-75
2023/05/26 03:22:55;;;;;;;15.75;9.50;;;14.90;99.90;;;;;;5030434;28;20475;-75
2023/05/26 03:25:22;;;;;;;13.23;9.13;;;14.90;99.90;;;;;;5029865;28;20025;-76
2023/05/26 03:27:48;;;;;;;14.60;9.70;;;14.90;99.90;;;;;;5030795;28;20030;-76
2023/05/26 03:30:14;;;;;;;15.45;9.77;;;14.90;99.90;;;;;;5030830;28;20512;-76
2023/05/26 03:32:41;;;;;;;13.57;9.50;;;14.90;99.90;;;;;;5033618;28;20391;-76
2023/05/26 03:35:07;;;;;;;14.00;9.18;;;14.90;99.90;;;;;;5017705;28;20037;-76
2023/05/26 03:37:33;;;;;;;11.93;9.63;;;14.90;99.90;;;;;;5033779;28;20029;-76
2023/05/26 03:40:00;;;;;;;15.63;9.65;;;14.70;99.90;;;;;;5034631;28;20022;-75
2023/05/26 03:42:26;;;;;;;17.67;9.25;;;14.70;99.90;;;;;;5033491;28;20029;-76
2023/05/26 03:44:52;;;;;;;14.50;9.05;;;14.80;99.90;;;;;;5033691;28;20033;-76
2023/05/26 03:47:18;;;;;;;15.10;9.98;;;14.90;99.90;;;;;;5021851;28;20070;-76
2023/05/26 03:49:44;;;;;;;13.82;10.10;;;14.80;99.90;;;;;;5054897;28;20037;-75
2023/05/26 03:52:10;;;;;;;13.50;9.93;;;14.70;99.90;;;;;;5036343;28;20033;-76
2023/05/26 03:54:36;;;;;;;13.20;9.27;;;14.70;99.90;;;;;;5033150;28;20493;-75
2023/05/26 03:57:02;;;;;;;24.35;9.75;;;14.70;99.90;;;;;;5033512;28;20036;-76
2023/05/26 03:59:28;;;;;;;15.55;9.88;;;14.70;99.90;;;;;;5033605;28;20030;-76
2023/05/26 04:01:55;;;;;;;12.75;9.65;;;14.70;99.90;;;;;;5032481;28;20030;-76
2023/05/26 04:04:21;;;;;;;16.55;10.70;;;14.60;99.90;;;;;;5033310;28;20025;-76
2023/05/26 04:06:47;;;;;;;13.55;10.15;;;14.60;99.90;;;;;;5016772;28;20029;-76
2023/05/26 04:09:13;;;;;;;17.13;10.23;;;14.60;99.90;;;;;;5032431;28;20078;-75
2023/05/26 04:11:40;;;;;;;15.38;10.05;;;14.50;99.90;;;;;;5034173;28;20374;-76
2023/05/26 04:14:06;;;;;;;16.52;10.70;;;14.40;99.90;;;;;;5033195;28;20376;-76
2023/05/26 04:16:33;;;;;;;18.27;10.77;;;14.30;99.90;;;;;;5031981;28;20406;-76
2023/05/26 04:18:59;;;;;;;13.18;9.82;;;14.30;99.90;;;;;;5034289;28;20029;-76
2023/05/26 04:21:26;;;;;;;15.25;10.80;;;14.30;99.90;;;;;;5032776;28;20493;-76
2023/05/26 04:23:53;;;;;;;12.38;10.68;;;14.30;99.90;;;;;;5032719;28;20485;-76
2023/05/26 04:26:19;;;;;;;15.48;10.82;;;14.30;99.90;;;;;;5033935;28;20037;-76
2023/05/26 04:28:45;;;;;;;16.35;11.50;;;14.40;99.90;;;;;;5033190;28;20037;-76
2023/05/26 04:31:16;;;;;;;15.30;11.05;;;14.40;99.90;;;;;;5048289;28;20037;-75
2023/05/26 04:33:44;;;;;;;16.25;11.10;;;14.30;99.90;;;;;;5032746;28;20387;-76
2023/05/26 04:36:10;;;;;;;17.70;11.05;;;14.30;99.90;;;;;;5032256;28;20034;-76
2023/05/26 04:38:41;;;;;;;24.23;12.68;;;14.30;99.90;;;;;;5033590;28;20474;-76
2023/05/26 04:41:07;;;;;;;23.10;12.43;;;14.30;99.90;;;;;;5032228;28;20034;-76
2023/05/26 04:43:36;;;;;;;20.05;12.65;;;14.30;99.90;;;;;;5033049;28;20390;-76
2023/05/26 04:46:03;;;;;;;23.80;11.93;;;14.30;99.90;;;;;;5033070;28;20049;-76
2023/05/26 04:48:29;;;;;;;18.17;11.80;;;14.20;99.90;;;;;;5048226;28;20036;-76
2023/05/26 04:50:55;;;;;;;19.98;13.02;;;14.20;99.90;;;;;;5047017;28;20033;-75
2023/05/26 04:53:21;;;;;;;21.05;12.27;;;14.20;99.90;;;;;;5033398;28;20052;-75
2023/05/26 04:55:48;;;;;;;17.33;11.75;;;14.20;99.90;;;;;;5033464;28;20099;-76
2023/05/26 04:58:15;;;;;;;20.38;11.52;;;14.20;99.90;;;;;;5033409;28;20037;-76
2023/05/26 05:00:42;;;;;;;21.17;12.10;;;14.20;99.90;;;;;;5032631;28;20049;-75
2023/05/26 05:03:08;;;;;;;19.15;11.45;;;14.20;99.90;;;;;;5032259;28;20026;-76
2023/05/26 05:05:34;;;;;;;19.98;11.90;;;14.20;99.90;;;;;;5033122;28;20394;-76
2023/05/26 05:08:00;;;;;;;20.50;12.50;;;14.20;99.90;;;;;;5015193;28;20033;-76
2023/05/26 05:10:26;;;;;;;19.67;12.27;;;14.30;99.90;;;;;;5015561;28;20084;-76
2023/05/26 05:12:53;;;;;;;17.88;12.13;;;14.30;99.90;;;;;;5033111;28;20026;-76
2023/05/26 05:15:19;;;;;;;19.92;12.00;;;14.40;99.90;;;;;;5014884;28;20482;-76
2023/05/26 05:17:48;;;;;;;20.67;11.65;;;14.40;99.90;;;;;;5033317;28;20044;-75
2023/05/26 05:20:14;;;;;;;19.58;11.70;;;14.60;99.90;;;;;;5032784;28;20033;-76
2023/05/26 05:22:40;;;;;;;19.00;12.27;;;14.60;99.90;;;;;;5032733;28;20025;-76
2023/05/26 05:25:07;;;;;;;18.17;12.68;;;14.70;99.90;;;;;;5031668;28;20466;-76
2023/05/26 05:27:33;;;;;;;20.92;12.75;;;14.90;99.90;;;;;;5031424;28;20037;-76
2023/05/26 05:29:59;;;;;;;23.75;12.73;;;14.90;99.90;;;;;;5032740;28;20076;-76
2023/05/26 05:32:25;;;;;;;17.90;11.85;;;15.00;99.90;;;;;;5030893;28;20044;-76
2023/05/26 05:34:51;;;;;;;20.95;12.93;;;15.10;99.90;;;;;;5032832;28;20064;-76
2023/05/26 05:37:18;;;;;;;18.45;12.77;;;15.20;99.90;;;;;;5030824;28;20033;-76
2023/05/26 05:39:44;;;;;;;19.98;12.40;;;15.30;99.90;;;;;;5032805;28;20052;-76
2023/05/26 05:42:10;;;;;;;18.27;12.52;;;15.30;99.90;;;;;;5032285;28;20033;-76
2023/05/26 05:44:36;;;;;;;22.70;13.43;;;15.20;99.90;;;;;;5031497;28;20040;-75
2023/05/26 05:47:02;;;;;;;27.20;13.60;;;15.30;99.90;;;;;;5034353;28;20052;-76
2023/05/26 05:49:28;;;;;;;18.67;12.93;;;15.50;99.90;;;;;;5051063;28;20045;-76
2023/05/26 05:51:54;;;;;;;21.92;12.57;;;15.60;99.90;;;;;;5069419;28;20390;-76
2023/05/26 05:54:21;;;;;;;17.15;11.70;;;15.70;99.90;;;;;;5031520;28;20037;-76
2023/05/26 05:56:47;;;;;;;18.92;12.30;;;15.70;99.90;;;;;;5032151;28;20029;-75
2023/05/26 05:59:13;;;;;;;19.27;12.32;;;15.70;99.90;;;;;;5031515;28;20037;-76
2023/05/26 06:01:39;;;;;;;21.02;13.48;;;15.80;99.90;;;;;;5013754;28;20029;-76
2023/05/26 06:04:05;;;;;;;22.65;13.10;;;15.70;99.90;;;;;;5032323;28;20033;-76
2023/05/26 06:06:31;;;;;;;18.27;11.73;;;15.60;99.90;;;;;;5030662;28;20451;-76
2023/05/26 06:08:57;;;;;;;20.92;11.93;;;15.70;99.90;;;;;;5014496;28;20057;-75
2023/05/26 06:11:23;;;;;;;18.77;12.70;;;15.70;99.90;;;;;;5032133;28;20032;-76
2023/05/26 06:13:49;;;;;;;20.23;12.45;;;15.70;99.90;;;;;;5030932;28;20409;-76
2023/05/26 06:16:16;;;;;;;17.90;12.90;;;15.80;99.90;;;;;;5013551;28;20038;-76
2023/05/26 06:18:42;;;;;;;18.80;12.10;;;16.00;99.90;;;;;;5047594;28;20490;-75
2023/05/26 06:21:08;;;;;;;18.23;12.80;;;16.00;99.90;;;;;;5031616;28;20044;-76
2023/05/26 06:23:34;;;;;;;15.70;11.57;;;16.20;99.90;;;;;;5030905;28;20052;-77
2023/05/26 06:26:00;;;;;;;15.05;11.63;;;16.30;99.90;;;;;;5031783;28;20033;-75
2023/05/26 06:28:26;;;;;;;17.88;11.13;;;16.30;99.90;;;;;;5031014;28;20041;-76
2023/05/26 06:30:52;;;;;;;19.58;12.48;;;16.40;99.90;;;;;;5030234;28;20045;-76
2023/05/26 06:33:18;;;;;;;19.95;12.13;;;16.40;99.90;;;;;;5032042;28;20033;-76
2023/05/26 06:35:44;;;;;;;19.58;11.05;;;16.30;99.90;;;;;;5030226;28;20052;-76
2023/05/26 06:38:10;;;;;;;19.50;12.38;;;16.40;99.90;;;;;;5047310;28;20466;-77
2023/05/26 06:40:36;;;;;;;20.30;11.40;;;16.50;99.90;;;;;;5030432;28;20038;-75
2023/05/26 06:43:02;;;;;;;18.42;11.93;;;16.50;99.90;;;;;;5014295;28;20467;-76
2023/05/26 06:45:29;;;;;;;19.75;12.18;;;16.70;99.90;;;;;;5030081;28;20045;-76
2023/05/26 06:47:55;;;;;;;17.48;10.48;;;16.80;99.90;;;;;;5042785;28;20037;-76
2023/05/26 06:50:21;;;;;;;17.58;11.65;;;16.90;99.90;;;;;;5048317;28;20029;-76
2023/05/26 06:52:47;;;;;;;20.58;12.00;;;16.80;99.90;;;;;;5014118;28;20494;-76
2023/05/26 06:55:13;;;;;;;12.00;8.30;;;16.90;99.90;;;;;;5031691;28;20037;-76
2023/05/26 06:57:39;;;;;;;17.98;12.23;;;17.00;99.90;;;;;;5030595;28;20033;-76
2023/05/26 07:00:06;;;;;;;15.43;9.90;;;17.10;99.90;;;;;;5030482;28;20034;-76
2023/05/26 07:02:32;;;;;;;16.15;11.02;;;17.20;99.90;;;;;;5013938;28;20053;-75
2023/05/26 07:04:59;;;;;;;21.80;11.00;;;17.20;99.90;;;;;;5031558;28;20489;-76
2023/05/26 07:07:25;;;;;;;16.90;11.30;;;17.20;99.90;;;;;;5016743;28;20046;-76
2023/05/26 07:09:51;;;;;;;21.50;12.50;;;17.40;99.90;;;;;;5035522;28;20033;-76
2023/05/26 07:12:18;;;;;;;15.90;10.73;;;17.50;99.90;;;;;;5035271;28;20052;-76
2023/05/26 07:14:46;;;;;;;16.45;9.77;;;17.70;99.90;;;;;;5035346;28;20037;-76
2023/05/26 07:17:12;;;;;;;18.08;11.05;;;17.70;99.90;;;;;;5034628;28;20029;-77
2023/05/26 07:19:38;;;;;;;16.85;11.35;;;17.70;99.90;;;;;;5050347;28;20045;-76
2023/05/26 07:22:04;;;;;;;18.45;11.20;;;17.80;99.90;;;;;;5033767;28;20026;-76
2023/05/26 07:24:30;;;;;;;18.27;12.13;;;18.00;99.90;;;;;;5034183;28;20033;-76
2023/05/26 07:26:57;;;;;;;17.60;11.30;;;18.20;99.90;;;;;;5033275;28;20116;-76
2023/05/26 07:29:23;;;;;;;19.17;11.95;;;18.20;99.90;;;;;;5017260;28;20045;-76
2023/05/26 07:31:49;;;;;;;20.25;11.30;;;18.30;99.90;;;;;;5016205;28;20040;-77
2023/05/26 07:34:15;;;;;;;12.82;9.85;;;18.30;99.90;;;;;;5035064;28;20037;-76
2023/05/26 07:36:41;;;;;;;15.05;10.32;;;18.50;99.90;;;;;;5033031;28;20037;-76
2023/05/26 07:39:07;;;;;;;20.10;11.02;;;18.50;99.90;;;;;;5016928;28;20038;-76
2023/05/26 07:41:34;;;;;;;16.95;11.18;;;18.30;99.90;;;;;;5016928;28;20032;-76
2023/05/26 07:44:00;;;;;;;13.82;9.60;;;18.30;99.90;;;;;;5033652;28;20462;-76
2023/05/26 07:46:26;;;;;;;17.05;10.68;;;18.30;99.90;;;;;;5033753;28;20057;-76
2023/05/26 07:48:53;;;;;;;15.55;11.48;;;18.30;99.90;;;;;;5065671;28;20395;-76
2023/05/26 07:51:19;;;;;;;22.40;11.82;;;18.60;99.90;;;;;;5016477;28;20045;-76
2023/05/26 07:53:45;;;;;;;20.48;11.13;;;18.50;99.90;;;;;;5017187;28;20021;-76
2023/05/26 07:56:11;;;;;;;19.05;11.05;;;18.70;99.90;;;;;;5016813;28;20044;-76
2023/05/26 07:58:39;;;;;;;18.80;10.98;;;18.80;99.90;;;;;;5034590;28;20022;-76
2023/05/26 08:01:08;;;;;;;13.73;10.00;;;18.80;99.90;;;;;;5032384;28;20052;-76
2023/05/26 08:03:34;;;;;;;14.07;9.20;;;19.00;99.90;;;;;;5016981;28;20360;-76
2023/05/26 08:06:00;;;;;;;19.83;10.38;;;19.00;99.90;;;;;;5034317;28;20037;-76
2023/05/26 08:08:26;;;;;;;14.50;9.60;;;19.00;99.90;;;;;;5033423;28;20029;-77
2023/05/26 08:10:52;;;;;;;17.27;9.82;;;19.10;99.90;;;;;;5033064;28;20455;-76
2023/05/26 08:13:18;;;;;;;14.40;9.02;;;19.20;99.90;;;;;;5033216;28;20037;-76
2023/05/26 08:15:44;;;;;;;17.77;10.40;;;19.40;99.90;;;;;;5032100;28;20037;-75
2023/05/26 08:18:11;;;;;;;15.27;9.25;;;19.60;99.90;;;;;;5032222;28;20063;-75
2023/05/26 08:20:37;;;;;;;18.15;10.35;;;19.50;99.90;;;;;;5033946;28;20032;-75
2023/05/26 08:23:03;;;;;;;13.77;9.68;;;19.40;99.90;;;;;;5034104;28;20021;-76
2023/05/26 08:25:29;;;;;;;17.88;11.30;;;19.50;99.90;;;;;;5032891;28;20406;-76
2023/05/26 08:27:55;;;;;;;14.90;11.05;;;19.60;99.90;;;;;;5033008;28;20036;-75
2023/05/26 08:30:21;;;;;;;19.55;10.27;;;19.70;99.90;;;;;;5031908;28;20022;-76
2023/05/26 08:32:47;;;;;;;15.10;9.73;;;19.90;99.90;;;;;;5033880;28;20017;-76
2023/05/26 08:35:13;;;;;;;15.07;10.88;;;20.10;99.90;;;;;;5033706;28;20037;-76
2023/05/26 08:37:39;;;;;;;14.23;9.95;;;20.30;99.90;;;;;;5049258;28;20036;-75
2023/05/26 08:40:06;;;;;;;20.33;10.43;;;20.40;99.90;;;;;;5033929;28;20041;-76
2023/05/26 08:42:41;;;;;;;15.82;9.63;;;20.50;99.90;;;;;;5033535;28;20030;-76
2023/05/26 08:45:07;;;;;;;14.63;9.40;;;20.60;99.90;;;;;;5031791;28;20025;-76
2023/05/26 08:47:35;;;;;;;12.60;9.40;;;20.50;99.90;;;;;;5041310;28;20049;-76
2023/05/26 08:50:03;;;;;;;13.75;9.40;;;20.50;99.90;;;;;;5052486;28;20477;-75
2023/05/26 08:52:29;;;;;;;17.55;10.15;;;20.60;99.90;;;;;;5034051;28;20033;-76
2023/05/26 08:54:55;;;;;;;14.70;9.05;;;20.70;99.90;;;;;;5032448;28;20042;-76
2023/05/26 08:57:22;;;;;;;15.50;9.07;;;20.80;99.90;;;;;;5033097;28;20378;-75
2023/05/26 08:59:48;;;;;;;14.40;8.75;;;20.80;99.90;;;;;;5033128;28;20030;-75
2023/05/26 09:02:15;;;;;;;11.82;8.38;;;21.00;99.90;;;;;;5031410;28;20037;-76
2023/05/26 09:04:41;;;;;;;19.05;8.85;;;21.10;99.90;;;;;;5032243;28;20053;-75
2023/05/26 09:07:10;;;;;;;15.13;9.00;;;20.90;99.90;;;;;;5031876;28;20029;-75
2023/05/26 09:09:36;;;;;;;13.80;9.05;;;20.90;99.90;;;;;;5033460;28;20359;-75
2023/05/26 09:12:08;;;;;;;19.02;9.38;;;21.00;99.90;;;;;;5033035;28;20028;-75
2023/05/26 09:14:34;;;;;;;17.25;8.90;;;21.20;99.90;;;;;;5031792;28;20029;-75
2023/05/26 09:17:00;;;;;;;13.13;8.93;;;21.40;99.90;;;;;;5031133;28;20036;-75
2023/05/26 09:19:26;;;;;;;13.63;8.43;;;21.50;99.90;;;;;;5031919;28;20037;-75
2023/05/26 09:21:52;;;;;;;14.90;8.70;;;21.60;99.90;;;;;;5032751;28;20358;-75
2023/05/26 09:24:20;;;;;;;14.00;8.90;;;21.80;99.90;;;;;;5031965;28;20113;-75
2023/05/26 09:26:47;;;;;;;17.75;9.68;;;21.80;99.90;;;;;;5031624;28;20402;-75
2023/05/26 09:29:13;;;;;;;14.52;9.80;;;21.60;99.90;;;;;;5032460;28;20022;-75
2023/05/26 09:31:43;;;;;;;17.70;9.48;;;21.60;99.90;;;;;;5031994;28;20051;-75
2023/05/26 09:34:10;;;;;;;15.02;8.63;;;21.70;99.90;;;;;;5013147;28;20022;-75
2023/05/26 09:36:36;;;;;;;15.38;8.07;;;21.80;99.90;;;;;;5023364;28;20040;-75
2023/05/26 09:39:03;;;;;;;15.27;9.57;;;21.80;99.90;;;;;;5032799;28;20025;-75
2023/05/26 09:41:39;;;;;;;15.90;8.95;;;21.80;99.90;;;;;;5064521;28;20037;-75
2023/05/26 09:44:12;;;;;;;14.07;8.45;;;21.80;99.90;;;;;;5031041;28;20395;-75
2023/05/26 09:46:39;;;;;;;14.70;8.48;;;22.00;99.90;;;;;;5047346;28;20053;-75
2023/05/26 09:49:10;;;;;;;16.98;9.00;;;22.10;99.90;;;;;;5051492;28;20025;-76
2023/05/26 09:51:36;;;;;;;20.23;9.80;;;22.20;99.90;;;;;;5038969;28;20041;-75
2023/05/26 09:54:02;;;;;;;16.05;9.90;;;22.20;99.90;;;;;;5031204;28;20379;-76
2023/05/26 09:56:32;;;;;;;16.20;9.32;;;22.30;99.90;;;;;;5031172;28;20505;-75
2023/05/26 09:58:58;;;;;;;17.70;9.38;;;22.40;99.90;;;;;;5031038;28;20026;-75
2023/05/26 10:01:24;;;;;;;15.02;9.43;;;22.60;99.90;;;;;;5014083;28;20038;-75
2023/05/26 10:03:50;;;;;;;16.95;10.23;;;22.80;99.90;;;;;;5014713;28;20044;-75
2023/05/26 10:06:16;;;;;;;21.65;11.20;;;22.90;99.90;;;;;;5014672;28;20029;-75
2023/05/26 10:08:44;;;;;;;15.25;10.77;;;22.90;99.90;;;;;;5014608;28;20026;-75
2023/05/26 10:11:10;;;;;;;15.07;10.43;;;23.00;99.90;;;;;;5014730;28;20044;-75
2023/05/26 10:13:36;;;;;;;17.52;10.10;;;23.10;99.90;;;;;;5030650;28;20036;-75
2023/05/26 10:16:03;;;;;;;20.52;11.30;;;23.20;99.90;;;;;;5013812;28;20516;-75
2023/05/26 10:18:29;;;;;;;16.08;10.57;;;23.20;99.90;;;;;;5014782;28;20455;-75
2023/05/26 10:20:55;;;;;;;13.48;9.70;;;23.20;99.90;;;;;;5030657;28;20041;-75
2023/05/26 10:23:32;;;;;;;17.05;10.68;;;23.30;99.90;;;;;;5031043;28;20386;-76
2023/05/26 10:26:07;;;;;;;18.48;10.57;;;23.30;99.90;;;;;;5031545;28;20037;-75
2023/05/26 10:28:54;;;;;;;14.73;11.30;;;23.40;99.90;;;;;;5030952;28;20382;-75
2023/05/26 10:31:36;;;;;;;19.10;11.48;;;23.20;99.90;;;;;;5013221;28;20390;-75
2023/05/26 10:34:12;;;;;;;13.88;12.30;;;23.20;99.90;;;;;;5014602;28;20037;-76
2023/05/26 10:36:39;;;;;;;14.45;11.82;;;23.40;99.90;;;;;;5030932;28;20512;-75
2023/05/26 10:39:11;;;;;;;20.27;12.38;;;23.30;99.90;;;;;;5030870;28;20034;-75
2023/05/26 10:41:38;;;;;;;14.02;11.35;;;23.40;99.90;;;;;;5032343;28;20030;-75
2023/05/26 10:44:05;;;;;;;15.00;13.40;;;23.60;99.90;;;;;;5034904;28;20410;-75
2023/05/26 10:46:38;;;;;;;13.07;11.98;;;23.60;99.90;;;;;;5033811;28;20045;-75
2023/05/26 10:49:04;;;;;;;17.63;12.48;;;23.50;99.90;;;;;;5015090;28;20026;-75
2023/05/26 10:51:34;;;;;;;13.85;11.10;;;23.20;99.90;;;;;;5025574;28;20052;-76
2023/05/26 10:54:14;;;;;;;18.45;13.27;;;23.30;99.90;;;;;;5034769;28;20171;-75
2023/05/26 10:56:41;;;;;;;;;;;23.50;99.90;;;;;;5018009;28;20037;-75
2023/05/26 10:59:07;;;;;;;16.65;12.90;;;23.70;99.90;;;;;;5018096;28;19905;-76
2023/05/26 11:01:33;;;;;;;15.60;12.65;;;23.70;99.90;;;;;;5033634;28;20497;-76
2023/05/26 11:04:08;;;;;;;15.05;13.55;;;23.90;99.90;;;;;;5034492;28;20033;-75
2023/05/26 11:06:59;;;;;;;17.95;13.85;;;24.10;99.90;;;;;;5035442;28;20475;-75
2023/05/26 11:09:26;;;;;;;16.45;14.73;;;24.20;99.90;;;;;;5033995;28;20032;-75
2023/05/26 11:11:54;;;;;;;16.98;15.32;;;24.10;99.90;;;;;;5017739;28;20044;-75
2023/05/26 11:14:32;;;;;;;16.65;14.98;;;24.10;99.90;;;;;;5034177;28;20351;-75
2023/05/26 11:16:59;;;;;;;18.42;16.90;;;24.20;99.90;;;;;;5033513;28;20052;-75
2023/05/26 11:19:33;;;;;;;17.25;14.55;;;24.30;99.90;;;;;;5017903;28;20040;-75
2023/05/26 11:22:09;;;;;;;17.08;14.27;;;24.10;99.90;;;;;;5033744;28;20048;-75
2023/05/26 11:24:36;;;;;;;16.58;14.98;;;24.30;99.90;;;;;;5017560;28;20032;-75
2023/05/26 11:27:03;;;;;;;16.33;14.95;;;24.50;99.90;;;;;;5017526;28;20029;-75
2023/05/26 11:29:29;;;;;;;15.50;14.23;;;24.60;99.80;;;;;;5034068;28;20030;-75
2023/05/26 11:31:55;;;;;;;16.15;14.55;;;24.30;99.90;;;;;;5016421;28;20048;-75
2023/05/26 11:34:22;;;;;;;16.23;14.75;;;24.30;99.80;;;;;;5035067;28;20029;-76
2023/05/26 11:36:53;;;;;;;15.00;13.60;;;24.40;99.40;;;;;;5033551;28;20037;-75
2023/05/26 11:39:21;;;;;;;15.07;13.60;;;24.50;99.40;;;;;;5033571;28;20555;-75
2023/05/26 11:41:47;;;;;;;16.08;14.30;;;24.50;99.60;;;;;;5033688;28;20382;-75
2023/05/26 11:44:15;;;;;;;15.02;13.55;;;24.70;99.00;;;;;;5033815;28;20486;-75
2023/05/26 11:46:42;;;;;;;15.68;14.18;;;24.70;98.70;;;;;;5017218;28;20061;-75
2023/05/26 11:49:14;;;;;;;14.82;13.30;;;24.70;98.30;;;;;;5053517;28;20029;-75
2023/05/26 11:51:48;;;;;;;16.52;13.43;;;24.70;97.70;;;;;;5040590;28;20029;-75
2023/05/26 11:54:14;;;;;;;15.27;13.90;;;24.60;97.60;;;;;;5017009;28;20040;-75
2023/05/26 11:56:40;;;;;;;15.93;14.50;;;24.60;97.90;;;;;;5016828;28;20049;-75
2023/05/26 11:59:06;;;;;;;15.23;13.73;;;24.70;98.10;;;;;;5016992;28;20037;-75
2023/05/26 12:01:33;;;;;;;16.17;14.00;;;24.90;97.90;;;;;;5032710;28;20045;-75
2023/05/26 12:04:02;;;;;;;15.52;14.15;;;25.00;97.80;;;;;;5033465;28;20036;-75
2023/05/26 12:06:29;;;;;;;14.75;13.50;;;25.00;97.10;;;;;;5017074;28;20398;-76
2023/05/26 12:09:00;;;;;;;16.23;13.95;;;25.00;96.00;;;;;;5033203;28;20036;-75
2023/05/26 12:11:29;;;;;;;13.02;11.82;;;25.10;96.50;;;;;;5034164;28;20033;-75
2023/05/26 12:13:56;;;;;;;15.63;14.20;;;25.10;97.00;;;;;;5034520;28;20029;-74
2023/05/26 12:16:23;;;;;;;15.90;14.52;;;25.10;96.70;;;;;;5016154;28;20044;-75
2023/05/26 12:18:53;;;;;;;13.57;12.20;;;25.10;94.70;;;;;;5033078;28;20026;-75
2023/05/26 12:21:20;;;;;;;14.02;12.65;;;25.00;94.80;;;;;;5016063;28;20049;-75
2023/05/26 12:23:46;;;;;;;15.63;13.68;;;25.20;95.40;;;;;;5032860;28;20036;-75
2023/05/26 12:26:23;;;;;;;14.00;12.90;;;25.50;95.70;;;;;;5016245;28;20028;-76
2023/05/26 12:29:08;;;;;;;12.93;11.93;;;25.40;94.10;;;;;;5034343;28;20025;-75
2023/05/26 12:31:37;;;;;;;13.65;12.55;;;25.40;94.30;;;;;;5033187;28;20034;-75